Time;durP1;ratioP1;P1;durP2;ratioP2;P2;SDS_P1;SDS_P2;PMS_P1;PMS_P2;Temp;Humidity;BMP_temperature;BMP_pressure;BME280_temperature;BME280_humidity;BME280_pressure;Samples;Min_cycle;Max_cycle;Signal;HPM_P1;HPM_P2
2021/07/13 00:00:32;;;;;;;31.73;25.33;;;;;;;17.29;86.14;101192.28;5023839;28;20032;-67
2021/07/13 00:02:58;;;;;;;33.75;26.50;;;;;;;17.25;86.64;101192.47;5011620;28;20030;-69
2021/07/13 00:05:24;;;;;;;37.45;26.70;;;;;;;17.24;86.40;101196.03;5017586;28;20382;-69
2021/07/13 00:07:50;;;;;;;34.03;26.15;;;;;;;17.23;86.15;101202.28;5024253;28;20024;-69
2021/07/13 00:10:19;;;;;;;35.33;26.85;;;;;;;17.20;86.60;101191.81;5006770;28;20482;-69
2021/07/13 00:12:44;;;;;;;33.95;28.33;;;;;;;17.19;86.63;101194.56;5024067;28;20028;-70
2021/07/13 00:15:31;;;;;;;39.35;29.63;;;;;;;17.15;86.37;101206.28;5025548;28;20033;-68
2021/07/13 00:17:57;;;;;;;32.67;28.38;;;;;;;17.14;86.44;101208.09;5023788;28;20120;-69
2021/07/13 00:20:23;;;;;;;35.20;29.00;;;;;;;17.14;86.58;101212.53;5024978;28;20100;-71
2021/07/13 00:22:49;;;;;;;32.50;26.25;;;;;;;17.11;86.27;101218.84;5006701;28;20030;-69
2021/07/13 00:25:15;;;;;;;32.83;27.48;;;;;;;17.08;86.03;101227.84;5007248;28;20355;-69
2021/07/13 00:27:41;;;;;;;38.58;29.58;;;;;;;17.03;86.64;101221.94;5023620;28;20021;-67
2021/07/13 00:30:08;;;;;;;37.15;28.70;;;;;;;16.99;87.04;101214.22;5020310;28;20084;-70
2021/07/13 00:32:34;;;;;;;34.38;28.98;;;;;;;16.96;86.74;101217.06;5024454;28;20035;-70
2021/07/13 00:34:59;;;;;;;32.97;28.20;;;;;;;16.91;86.30;101211.97;5006095;28;20025;-68
2021/07/13 00:37:24;;;;;;;35.03;28.83;;;;;;;16.87;86.89;101215.69;5006235;28;20382;-67
2021/07/13 00:39:50;;;;;;;34.88;28.67;;;;;;;16.81;86.55;101205.41;5024866;28;20398;-70
2021/07/13 00:42:16;;;;;;;33.58;28.00;;;;;;;16.77;86.90;101210.91;5024786;28;20033;-68
2021/07/13 00:44:42;;;;;;;34.65;28.52;;;;;;;16.73;86.88;101209.34;5024421;28;20022;-67
2021/07/13 00:47:09;;;;;;;34.30;28.33;;;;;;;16.70;86.60;101204.22;5011369;28;20087;-68
2021/07/13 00:49:35;;;;;;;32.75;28.10;;;;;;;16.68;86.92;101203.41;5014245;28;20025;-68
2021/07/13 00:52:00;;;;;;;38.17;29.02;;;;;;;16.68;86.96;101213.16;5010764;28;20084;-68
2021/07/13 00:54:26;;;;;;;35.30;28.58;;;;;;;16.68;86.52;101216.66;5028133;28;20017;-67
2021/07/13 00:56:52;;;;;;;32.33;27.02;;;;;;;16.67;86.92;101219.41;5010675;28;20086;-68
2021/07/13 00:59:17;;;;;;;31.05;27.25;;;;;;;16.66;86.48;101217.69;5010400;28;20490;-69
2021/07/13 01:01:46;;;;;;;34.38;28.23;;;;;;;16.64;86.62;101222.22;5008646;28;20057;-69
2021/07/13 01:04:12;;;;;;;33.60;27.80;;;;;;;16.60;86.95;101209.13;5010000;28;20532;-68
2021/07/13 01:06:49;;;;;;;31.65;27.25;;;;;;;16.61;86.99;101220.59;5010020;28;20037;-68
2021/07/13 01:09:26;;;;;;;33.80;26.40;;;;;;;16.60;86.70;101224.19;5028092;28;20029;-67
2021/07/13 01:12:06;;;;;;;36.90;26.20;;;;;;;16.60;86.78;101232.97;5010314;28;20104;-68
2021/07/13 01:14:34;;;;;;;34.15;26.20;;;;;;;16.57;86.86;101230.50;5009917;28;20029;-70
2021/07/13 01:17:11;;;;;;;33.70;28.00;;;;;;;16.49;86.46;101224.72;4993371;28;20037;-69
2021/07/13 01:20:10;;;;;;;37.83;27.80;;;;;;;16.40;86.92;101230.50;4988729;28;20033;-70
2021/07/13 01:22:51;;;;;;;37.13;28.92;;;;;;;16.35;87.61;101230.72;5027445;28;20026;-69
2021/07/13 01:25:51;;;;;;;38.28;29.40;;;;;;;16.31;87.35;101229.19;5009721;28;20029;-69
2021/07/13 01:28:21;;;;;;;37.10;29.42;;;;;;;16.29;87.70;101223.94;4975394;28;20159;-70
2021/07/13 01:30:52;;;;;;;33.63;28.30;;;;;;;16.31;87.46;101218.59;5010024;28;20075;-70
2021/07/13 01:33:24;;;;;;;36.42;29.95;;;;;;;16.29;87.38;101226.59;5010030;28;20086;-69
2021/07/13 01:35:53;;;;;;;39.97;29.73;;;;;;;16.27;87.64;101217.03;4994867;28;20036;-67
2021/07/13 01:38:25;;;;;;;37.25;30.15;;;;;;;16.28;87.66;101221.38;5004380;28;20036;-69
2021/07/13 01:40:54;;;;;;;37.85;29.88;;;;;;;16.27;87.40;101228.47;5026826;28;20076;-67
2021/07/13 01:43:20;;;;;;;47.75;33.70;;;;;;;16.27;87.77;101223.19;5010376;28;20029;-70
2021/07/13 01:45:45;;;;;;;44.97;33.92;;;;;;;16.27;88.00;101217.91;5008962;28;20375;-69
2021/07/13 01:48:11;;;;;;;45.08;34.50;;;;;;;16.27;87.76;101217.91;5027404;28;20022;-66
2021/07/13 01:50:38;;;;;;;48.97;35.92;;;;;;;16.26;88.41;101216.19;5008934;28;20037;-70
2021/07/13 01:53:04;;;;;;;50.03;37.80;;;;;;;16.27;88.58;101217.91;5009596;28;20041;-66
2021/07/13 01:55:38;;;;;;;54.10;39.28;;;;;;;16.34;89.18;101212.28;5008532;28;20156;-66
2021/07/13 01:58:03;;;;;;;64.00;45.22;;;;;;;16.41;89.26;101213.66;5008730;28;20037;-68
2021/07/13 02:00:29;;;;;;;56.78;41.60;;;;;;;16.49;89.49;101210.63;5008290;28;20025;-68
2021/07/13 02:02:55;;;;;;;63.17;44.25;;;;;;;16.58;89.40;101221.63;5008777;28;20561;-68
2021/07/13 02:05:22;;;;;;;65.03;47.25;;;;;;;16.69;89.34;101225.47;5008744;28;20022;-68
2021/07/13 02:07:49;;;;;;;73.35;47.67;;;;;;;16.78;89.69;101228.50;5008131;28;20751;-67
2021/07/13 02:10:17;;;;;;;68.03;46.85;;;;;;;16.87;89.14;101226.28;5008938;28;20036;-69
2021/07/13 02:12:42;;;;;;;66.75;46.67;;;;;;;16.89;89.07;101230.59;5008491;28;20032;-70
2021/07/13 02:15:08;;;;;;;66.35;43.83;;;;;;;16.94;88.98;101225.94;5025857;28;20026;-70
2021/07/13 02:17:34;;;;;;;60.30;43.78;;;;;;;17.00;89.02;101231.84;5008199;28;20021;-69
2021/07/13 02:20:00;;;;;;;69.45;47.20;;;;;;;17.04;88.62;101221.00;5008050;28;20104;-69
2021/07/13 02:22:27;;;;;;;68.88;46.72;;;;;;;17.08;89.06;101219.88;5026455;28;20492;-68
2021/07/13 02:24:53;;;;;;;68.70;47.63;;;;;;;17.10;88.83;101218.00;5007097;28;20486;-67
2021/07/13 02:27:19;;;;;;;59.97;44.97;;;;;;;17.13;88.85;101214.34;5006750;28;20045;-67
2021/07/13 02:29:55;;;;;;;68.05;48.67;;;;;;;17.17;88.98;101210.56;5025186;28;20045;-67
2021/07/13 02:32:39;;;;;;;70.28;48.05;;;;;;;17.20;88.66;101209.53;5008795;28;20037;-69
2021/07/13 02:35:05;;;;;;;69.13;48.30;;;;;;;17.22;88.91;101205.03;5025836;28;20729;-68
2021/07/13 02:37:32;;;;;;;69.75;48.40;;;;;;;17.26;88.92;101203.91;5007451;28;20013;-67
2021/07/13 02:39:58;;;;;;;82.88;51.55;;;;;;;17.29;88.79;101198.44;5000023;28;20379;-67
2021/07/13 02:42:24;;;;;;;89.38;54.10;;;;;;;17.30;89.06;101194.81;5008498;28;20033;-68
2021/07/13 02:44:49;;;;;;;77.32;50.03;;;;;;;17.34;89.26;101200.81;5007846;28;20088;-67
2021/07/13 02:47:15;;;;;;;81.45;52.25;;;;;;;17.35;88.79;101192.81;5007665;28;20099;-69
2021/07/13 02:49:45;;;;;;;91.95;55.20;;;;;;;17.37;89.43;101192.72;5007976;28;20025;-69
2021/07/13 02:52:15;;;;;;;90.32;56.08;;;;;;;17.38;89.34;101197.06;5005722;28;20022;-69
2021/07/13 02:54:41;;;;;;;117.68;63.88;;;;;;;17.41;89.73;101199.53;5007944;28;20016;-70
2021/07/13 02:57:07;;;;;;;127.53;67.60;;;;;;;17.45;89.88;101194.94;5007744;28;20029;-67
2021/07/13 02:59:34;;;;;;;153.82;74.70;;;;;;;17.48;89.84;101194.78;5007722;28;20037;-69
2021/07/13 03:02:00;;;;;;;200.52;89.47;;;;;;;17.50;90.49;101187.56;5025941;28;20065;-70
2021/07/13 03:04:25;;;;;;;216.35;95.45;;;;;;;17.54;90.63;101189.13;5008085;28;20052;-67
2021/07/13 03:06:52;;;;;;;234.05;101.28;;;;;;;17.55;90.79;101191.69;5024325;28;20034;-68
2021/07/13 03:09:17;;;;;;;220.75;93.72;;;;;;;17.60;90.75;101194.06;5007900;28;20017;-66
2021/07/13 03:11:43;;;;;;;231.00;98.55;;;;;;;17.64;90.36;101197.38;5007669;28;20031;-69
2021/07/13 03:14:10;;;;;;;240.32;102.75;;;;;;;17.66;90.84;101195.50;5024099;28;20027;-69
2021/07/13 03:16:36;;;;;;;247.18;101.47;;;;;;;17.67;90.59;101189.25;5007638;28;20029;-69
2021/07/13 03:19:03;;;;;;;238.85;102.43;;;;;;;17.69;90.77;101192.69;5024781;28;20067;-67
2021/07/13 03:21:30;;;;;;;225.38;96.07;;;;;;;17.71;90.11;101191.66;4988016;28;20021;-69
2021/07/13 03:23:59;;;;;;;220.95;97.22;;;;;;;17.73;90.63;101192.41;5007426;28;20052;-70
2021/07/13 03:26:31;;;;;;;223.30;98.60;;;;;;;17.74;90.30;101188.81;4992039;28;20022;-69
2021/07/13 03:28:58;;;;;;;219.95;100.47;;;;;;;17.74;90.36;101183.50;4990418;28;20113;-68
2021/07/13 03:31:25;;;;;;;210.05;95.22;;;;;;;17.74;90.07;101187.97;5027767;28;20057;-69
2021/07/13 03:33:50;;;;;;;196.45;93.82;;;;;;;17.73;90.33;101188.91;5025183;28;20505;-66
2021/07/13 03:36:17;;;;;;;208.50;97.15;;;;;;;17.70;89.99;101187.28;5024741;28;20091;-66
2021/07/13 03:38:43;;;;;;;219.85;98.32;;;;;;;17.70;90.01;101194.38;4991156;28;20029;-69
2021/07/13 03:41:08;;;;;;;216.80;98.47;;;;;;;17.70;90.39;101199.69;5025071;28;20025;-68
2021/07/13 03:43:34;;;;;;;215.07;97.93;;;;;;;17.71;90.25;101201.41;5024650;28;20612;-68
2021/07/13 03:46:00;;;;;;;208.55;95.72;;;;;;;17.72;90.35;101203.97;5024330;28;20034;-68
2021/07/13 03:48:27;;;;;;;200.70;93.97;;;;;;;17.73;90.17;101195.06;5006386;28;20013;-68
2021/07/13 03:50:52;;;;;;;202.80;95.65;;;;;;;17.72;90.25;101200.47;5024122;28;20024;-67
2021/07/13 03:53:18;;;;;;;200.52;96.85;;;;;;;17.71;90.34;101196.97;5025307;28;20128;-68
2021/07/13 03:55:44;;;;;;;203.93;94.32;;;;;;;17.72;90.26;101203.97;5024221;28;20029;-69
2021/07/13 03:58:09;;;;;;;197.73;93.53;;;;;;;17.73;90.16;101199.53;5007224;28;20429;-69
2021/07/13 04:00:34;;;;;;;192.65;91.55;;;;;;;17.73;89.95;101199.53;5025526;28;20057;-70
2021/07/13 04:03:00;;;;;;;186.88;92.53;;;;;;;17.77;90.00;101197.56;5025154;28;20037;-69
2021/07/13 04:05:27;;;;;;;180.88;90.85;;;;;;;17.78;89.78;101197.44;5008078;28;20053;-68
2021/07/13 04:07:52;;;;;;;179.95;86.75;;;;;;;17.79;89.85;101199.16;5025009;28;20122;-67
2021/07/13 04:10:18;;;;;;;171.95;88.15;;;;;;;17.80;89.64;101205.31;5025249;28;20530;-69
2021/07/13 04:12:44;;;;;;;175.43;84.85;;;;;;;17.80;89.67;101203.53;5025140;28;20075;-70
2021/07/13 04:15:10;;;;;;;168.02;85.80;;;;;;;17.82;89.72;101201.63;5006449;28;20198;-69
2021/07/13 04:17:36;;;;;;;155.98;81.35;;;;;;;17.83;89.68;101203.34;5024583;28;20041;-69
2021/07/13 04:20:04;;;;;;;148.80;77.60;;;;;;;17.86;89.62;101215.56;5024422;28;20018;-68
2021/07/13 04:22:29;;;;;;;146.20;77.88;;;;;;;17.88;89.35;101217.19;5026298;28;20029;-68
2021/07/13 04:24:55;;;;;;;140.55;76.20;;;;;;;17.91;89.33;101216.16;5027657;28;20138;-69
2021/07/13 04:27:20;;;;;;;140.48;76.35;;;;;;;17.90;88.96;101212.66;5010573;28;20022;-69
2021/07/13 04:29:46;;;;;;;137.15;74.10;;;;;;;17.92;89.13;101220.53;4984253;28;20445;-68
2021/07/13 04:32:12;;;;;;;128.18;72.20;;;;;;;17.90;88.96;101223.28;5010803;28;20390;-68
2021/07/13 04:34:37;;;;;;;120.35;69.53;;;;;;;17.90;89.04;101227.75;5028708;28;20021;-69
2021/07/13 04:37:03;;;;;;;126.32;70.25;;;;;;;17.92;88.36;101233.78;5009791;28;20160;-66
2021/07/13 04:39:28;;;;;;;116.88;67.95;;;;;;;17.92;88.31;101233.78;5027993;28;20230;-69
2021/07/13 04:41:54;;;;;;;112.65;64.72;;;;;;;17.96;88.65;101234.50;5027941;28;20021;-69
2021/07/13 04:44:19;;;;;;;105.93;61.30;;;;;;;17.97;88.52;101230.91;5028007;28;20112;-66
2021/07/13 04:46:46;;;;;;;106.70;60.75;;;;;;;17.97;88.22;101225.59;5010608;28;20630;-71
2021/07/13 04:49:14;;;;;;;108.32;62.75;;;;;;;17.99;88.05;101229.03;5009994;28;20025;-66
2021/07/13 04:51:40;;;;;;;97.00;58.97;;;;;;;18.00;88.07;101230.75;5019883;28;20035;-68
2021/07/13 04:54:05;;;;;;;94.25;57.50;;;;;;;18.03;87.60;101238.53;5010525;28;20104;-69
2021/07/13 04:56:30;;;;;;;91.15;55.58;;;;;;;18.04;87.54;101242.91;5027871;28;20053;-67
2021/07/13 04:58:57;;;;;;;86.72;54.15;;;;;;;18.03;87.33;101243.84;5016466;28;20034;-69
2021/07/13 05:01:23;;;;;;;90.78;56.40;;;;;;;18.04;87.31;101242.91;4996152;28;20030;-68
2021/07/13 05:03:48;;;;;;;95.18;56.85;;;;;;;18.05;87.19;101242.78;4993573;28;20433;-69
2021/07/13 05:06:14;;;;;;;88.78;53.38;;;;;;;18.09;87.37;101246.13;5013767;28;20060;-66
2021/07/13 05:08:40;;;;;;;92.88;54.45;;;;;;;18.09;87.25;101248.78;5011599;28;20112;-70
2021/07/13 05:11:06;;;;;;;92.10;55.83;;;;;;;18.09;87.15;101248.78;5006579;28;20436;-68
2021/07/13 05:13:32;;;;;;;98.13;57.47;;;;;;;18.08;86.92;101251.53;5011599;28;20075;-67
2021/07/13 05:15:57;;;;;;;97.18;58.15;;;;;;;18.11;86.85;101246.91;4993190;28;20715;-69
2021/07/13 05:18:22;;;;;;;96.65;57.70;;;;;;;18.13;87.27;101255.63;5010199;28;20537;-67
2021/07/13 05:20:50;;;;;;;103.63;57.78;;;;;;;18.12;87.21;101259.25;5006629;28;20382;-69
2021/07/13 05:23:15;;;;;;;95.05;59.10;;;;;;;18.16;86.90;101259.88;5026438;28;20040;-69
2021/07/13 05:25:41;;;;;;;94.35;57.00;;;;;;;18.17;87.06;101267.78;5018463;28;20026;-69
2021/07/13 05:28:10;;;;;;;97.43;57.65;;;;;;;18.19;87.22;101259.72;5009362;28;20025;-70
2021/07/13 05:30:37;;;;;;;95.25;53.58;;;;;;;18.22;86.86;101259.53;5008130;28;20049;-69
2021/07/13 05:33:03;;;;;;;87.32;54.92;;;;;;;18.19;86.54;101263.22;5009220;28;20033;-68
2021/07/13 05:35:28;;;;;;;94.68;55.17;;;;;;;18.18;86.94;101264.19;5025825;28;20080;-69
2021/07/13 05:37:53;;;;;;;91.75;54.78;;;;;;;18.15;86.67;101264.34;5011546;28;20030;-67
2021/07/13 05:40:19;;;;;;;88.38;54.08;;;;;;;18.18;86.72;101274.81;5007944;28;20037;-69
2021/07/13 05:42:44;;;;;;;83.53;53.10;;;;;;;18.12;86.82;101267.19;5006469;28;20107;-69
2021/07/13 05:45:10;;;;;;;90.25;54.90;;;;;;;18.12;87.08;101267.19;5008401;28;20032;-67
2021/07/13 05:47:36;;;;;;;93.28;53.60;;;;;;;18.12;86.56;101261.91;5009341;28;20029;-68
2021/07/13 05:50:03;;;;;;;90.45;52.72;;;;;;;18.13;86.48;101260.91;5013236;28;20033;-68
2021/07/13 05:52:29;;;;;;;84.85;49.63;;;;;;;18.10;86.05;101269.09;5009885;28;20032;-68
2021/07/13 05:54:54;;;;;;;84.35;51.40;;;;;;;18.15;86.02;101267.00;5003049;28;20083;-68
2021/07/13 05:57:20;;;;;;;89.53;51.50;;;;;;;18.16;85.55;101266.06;5035238;28;20029;-68
2021/07/13 05:59:45;;;;;;;86.63;49.80;;;;;;;18.19;86.06;101265.03;5030978;28;20506;-67
2021/07/13 06:02:10;;;;;;;76.53;48.40;;;;;;;18.20;85.39;101270.25;4992446;28;20456;-67
2021/07/13 06:04:36;;;;;;;75.80;48.17;;;;;;;18.26;85.35;101268.19;5022198;28;20109;-69
2021/07/13 06:07:02;;;;;;;84.70;50.97;;;;;;;18.29;85.56;101260.03;5024690;28;20390;-69
2021/07/13 06:09:27;;;;;;;79.90;49.58;;;;;;;18.32;85.63;101267.81;5008690;28;20121;-67
2021/07/13 06:11:57;;;;;;;82.90;50.22;;;;;;;18.30;85.11;101264.41;5027761;28;20074;-69
2021/07/13 06:14:22;;;;;;;82.05;50.08;;;;;;;18.33;85.45;101266.88;5027250;28;20044;-69
2021/07/13 06:16:48;;;;;;;80.55;46.90;;;;;;;18.41;85.02;101256.66;5026962;28;20482;-71
2021/07/13 06:19:13;;;;;;;76.32;47.85;;;;;;;18.46;84.46;101267.03;5032624;28;20037;-68
2021/07/13 06:21:39;;;;;;;72.53;46.67;;;;;;;18.50;84.22;101263.22;5026940;28;20048;-67
2021/07/13 06:24:04;;;;;;;78.13;48.25;;;;;;;18.51;84.44;101271.09;5026139;28;20017;-68
2021/07/13 06:26:29;;;;;;;73.68;46.15;;;;;;;18.50;84.34;101272.03;5025280;28;20112;-69
2021/07/13 06:28:55;;;;;;;67.05;43.95;;;;;;;18.57;83.89;101282.28;5005085;28;20017;-68
2021/07/13 06:31:20;;;;;;;63.65;42.28;;;;;;;18.61;84.07;101276.72;5025538;28;20029;-68
2021/07/13 06:33:46;;;;;;;64.88;42.75;;;;;;;18.61;83.47;101271.41;5026116;28;20022;-68
2021/07/13 06:36:11;;;;;;;63.22;42.60;;;;;;;18.59;83.73;101264.47;5007920;28;20017;-68
2021/07/13 06:38:36;;;;;;;65.75;43.15;;;;;;;18.60;84.10;101271.50;5025381;28;20471;-69
2021/07/13 06:41:02;;;;;;;62.25;42.03;;;;;;;18.60;84.11;101274.16;5022190;28;20029;-68
2021/07/13 06:43:27;;;;;;;60.78;41.13;;;;;;;18.64;83.51;101276.53;5005889;28;20025;-69
2021/07/13 06:45:52;;;;;;;56.60;38.20;;;;;;;18.68;83.49;101282.50;5007030;28;20351;-67
2021/07/13 06:48:18;;;;;;;61.10;39.88;;;;;;;18.77;83.46;101289.09;5015682;28;20025;-68
2021/07/13 06:50:43;;;;;;;56.22;37.97;;;;;;;18.80;83.55;101284.41;5017254;28;20025;-68
2021/07/13 06:53:09;;;;;;;52.00;38.30;;;;;;;18.80;82.67;101281.75;5006058;28;20367;-69
2021/07/13 06:55:34;;;;;;;53.13;38.00;;;;;;;18.79;82.69;101292.50;5026950;28;20021;-67
2021/07/13 06:57:59;;;;;;;53.30;37.13;;;;;;;18.80;82.92;101289.72;5026618;28;20025;-66
2021/07/13 07:00:25;;;;;;;55.53;38.05;;;;;;;18.83;82.68;101291.38;5020798;28;20048;-68
2021/07/13 07:02:50;;;;;;;52.42;37.95;;;;;;;18.86;82.34;101292.03;5014462;28;20456;-67
2021/07/13 07:05:15;;;;;;;48.72;36.05;;;;;;;18.85;82.73;101293.00;5025098;28;20138;-68
2021/07/13 07:07:48;;;;;;;54.60;39.05;;;;;;;18.81;82.78;101293.25;5026865;28;20025;-68
2021/07/13 07:10:14;;;;;;;52.70;37.85;;;;;;;18.80;82.68;101297.72;5009531;28;20025;-68
2021/07/13 07:12:40;;;;;;;54.38;37.63;;;;;;;18.76;82.46;101298.00;5028343;28;20230;-68
2021/07/13 07:15:06;;;;;;;75.95;45.85;;;;;;;18.66;83.34;101295.03;5010522;28;20196;-68
2021/07/13 07:17:31;;;;;;;76.03;45.72;;;;;;;18.61;83.22;101292.66;5026199;28;20061;-67
2021/07/13 07:20:00;;;;;;;74.75;46.75;;;;;;;18.55;83.55;101298.34;5026444;28;20022;-67
2021/07/13 07:22:26;;;;;;;62.40;41.65;;;;;;;18.55;83.81;101299.19;5027572;28;20030;-68
2021/07/13 07:24:51;;;;;;;77.90;46.60;;;;;;;18.53;83.76;101294.91;5026402;28;20017;-69
2021/07/13 07:27:17;;;;;;;70.85;44.75;;;;;;;18.57;83.69;101301.75;5009185;28;20028;-68
2021/07/13 07:29:42;;;;;;;68.72;43.83;;;;;;;18.63;83.28;101303.19;5025611;28;20026;-68
2021/07/13 07:32:07;;;;;;;64.25;43.83;;;;;;;18.68;82.62;101299.31;5025013;28;20389;-67
2021/07/13 07:34:33;;;;;;;65.72;42.95;;;;;;;18.73;82.81;101296.41;5018299;28;20540;-68
2021/07/13 07:36:58;;;;;;;66.20;41.88;;;;;;;18.83;82.57;101304.66;5025431;28;20394;-68
2021/07/13 07:39:23;;;;;;;60.65;41.25;;;;;;;18.86;82.21;101307.13;5024995;28;20488;-69
2021/07/13 07:41:52;;;;;;;63.00;40.42;;;;;;;18.93;81.42;101299.66;5025335;28;20471;-68
2021/07/13 07:44:18;;;;;;;57.38;39.95;;;;;;;18.98;80.91;101300.25;5007826;28;20045;-68
2021/07/13 07:46:43;;;;;;;60.53;41.47;;;;;;;19.06;80.62;101305.09;5022919;28;20401;-68
2021/07/13 07:49:09;;;;;;;57.90;38.28;;;;;;;19.10;80.27;101315.44;5025011;28;20056;-66
2021/07/13 07:51:34;;;;;;;69.15;45.97;;;;;;;19.06;81.30;101310.41;5006772;28;20060;-67
2021/07/13 07:54:00;;;;;;;63.40;42.38;;;;;;;19.03;80.92;101306.13;5025617;28;20111;-68
2021/07/13 07:56:25;;;;;;;65.18;42.25;;;;;;;19.12;81.07;101308.22;5008887;28;20382;-69
2021/07/13 07:58:50;;;;;;;70.82;45.25;;;;;;;19.12;80.74;101318.84;5027419;28;20079;-68
2021/07/13 08:01:17;;;;;;;66.38;42.45;;;;;;;19.10;80.79;101310.13;5028920;28;20293;-69
2021/07/13 08:03:42;;;;;;;67.75;42.72;;;;;;;19.10;80.38;101312.78;5011236;28;20021;-68
2021/07/13 08:06:07;;;;;;;67.90;43.67;;;;;;;19.04;81.24;101315.84;5028484;28;20104;-69
2021/07/13 08:08:33;;;;;;;63.35;41.55;;;;;;;19.03;80.83;101319.44;5027960;28;20028;-68
2021/07/13 08:10:58;;;;;;;66.93;43.85;;;;;;;19.07;81.09;101318.28;5012141;28;20040;-67
2021/07/13 08:13:23;;;;;;;65.18;42.22;;;;;;;19.09;81.29;101318.19;5026407;28;20052;-67
2021/07/13 08:15:49;;;;;;;63.17;41.13;;;;;;;19.08;80.77;101317.34;5027561;28;20208;-69
2021/07/13 08:18:14;;;;;;;58.10;39.13;;;;;;;19.02;80.66;101313.25;5010955;28;20034;-70
2021/07/13 08:20:39;;;;;;;63.58;39.60;;;;;;;18.92;80.97;101317.41;5028539;28;20032;-69
2021/07/13 08:23:05;;;;;;;53.03;38.13;;;;;;;18.98;80.84;101316.19;5028655;28;20025;-68
2021/07/13 08:25:30;;;;;;;56.90;38.00;;;;;;;19.06;80.44;101323.69;5018805;28;20129;-67
2021/07/13 08:27:57;;;;;;;52.78;33.90;;;;;;;19.09;80.34;101326.16;5010721;28;20021;-67
2021/07/13 08:30:22;;;;;;;52.78;34.30;;;;;;;18.96;80.68;101326.06;5016199;28;20021;-69
2021/07/13 08:32:47;;;;;;;50.35;34.42;;;;;;;18.93;80.44;101323.56;5011334;28;20724;-67
2021/07/13 08:35:13;;;;;;;50.35;32.15;;;;;;;18.95;80.05;101321.69;5027479;28;20585;-68
2021/07/13 08:37:39;;;;;;;54.88;35.30;;;;;;;18.91;80.21;101315.69;5010762;28;20025;-69
2021/07/13 08:40:08;;;;;;;49.97;35.47;;;;;;;18.90;81.04;101324.59;5009458;28;20037;-67
2021/07/13 08:42:44;;;;;;;55.95;35.65;;;;;;;18.84;80.47;101324.94;5011286;28;20049;-68
2021/07/13 08:45:11;;;;;;;50.97;34.45;;;;;;;18.88;80.23;101319.38;5028737;28;20025;-67
2021/07/13 08:47:38;;;;;;;57.53;37.65;;;;;;;18.83;80.73;101324.13;5029781;28;20028;-68
2021/07/13 08:50:04;;;;;;;66.85;38.30;;;;;;;18.78;81.38;101327.97;5023197;28;20054;-67
2021/07/13 08:52:31;;;;;;;55.42;36.72;;;;;;;18.82;80.89;101322.41;5011445;28;20041;-68
2021/07/13 08:54:57;;;;;;;64.40;36.60;;;;;;;18.86;80.88;101329.22;5029273;28;20029;-67
2021/07/13 08:57:22;;;;;;;56.47;37.08;;;;;;;18.86;80.91;101323.06;5007626;28;20479;-68
2021/07/13 08:59:47;;;;;;;59.65;38.85;;;;;;;18.88;81.42;101323.84;5029976;28;20025;-67
2021/07/13 09:02:13;;;;;;;48.42;33.90;;;;;;;18.99;80.69;101325.88;5017646;28;20034;-68
2021/07/13 09:04:39;;;;;;;52.83;35.50;;;;;;;19.07;80.36;101320.94;5029685;28;20021;-69
2021/07/13 09:07:09;;;;;;;54.22;34.95;;;;;;;19.12;80.11;101326.81;5029444;28;20028;-68
2021/07/13 09:09:37;;;;;;;59.45;36.47;;;;;;;19.10;79.99;101326.09;5027823;28;20621;-69
2021/07/13 09:12:22;;;;;;;52.40;33.75;;;;;;;19.23;78.93;101326.19;5010132;28;20109;-67
2021/07/13 09:14:56;;;;;;;57.28;37.95;;;;;;;19.19;79.53;101325.50;4997843;28;20017;-68
2021/07/13 09:17:41;;;;;;;57.90;36.33;;;;;;;19.32;79.28;101320.28;5015499;28;20105;-67
2021/07/13 09:20:21;;;;;;;50.13;34.25;;;;;;;19.42;79.21;101325.03;5027913;28;20121;-67
2021/07/13 09:23:01;;;;;;;55.30;36.42;;;;;;;19.40;78.30;101327.78;5027199;28;20131;-66
2021/07/13 09:25:36;;;;;;;51.30;35.30;;;;;;;19.44;78.31;101331.13;5009830;28;20056;-67
2021/07/13 09:28:10;;;;;;;51.20;35.47;;;;;;;19.54;78.79;101329.59;5008271;28;20060;-67
2021/07/13 09:30:37;;;;;;;55.85;35.72;;;;;;;19.66;78.57;101333.28;5027454;28;20034;-67
2021/07/13 09:33:14;;;;;;;53.22;35.50;;;;;;;19.78;78.09;101331.63;5009346;28;20513;-68
2021/07/13 09:35:41;;;;;;;57.75;37.65;;;;;;;19.75;77.51;101327.34;5009340;28;20427;-66
2021/07/13 09:38:06;;;;;;;51.58;35.25;;;;;;;19.81;78.42;101321.66;5009374;28;20144;-69
2021/07/13 09:40:38;;;;;;;54.03;35.90;;;;;;;19.97;77.28;101324.19;5012290;28;20022;-68
2021/07/13 09:43:05;;;;;;;54.22;36.90;;;;;;;19.98;76.96;101331.25;5004737;28;20504;-68
2021/07/13 09:45:33;;;;;;;51.63;36.33;;;;;;;19.89;75.98;101330.97;5027129;28;20055;-67
2021/07/13 09:48:16;;;;;;;53.00;35.38;;;;;;;20.10;76.47;101329.56;5027682;28;20021;-67
2021/07/13 09:50:44;;;;;;;49.03;34.25;;;;;;;20.35;75.65;101325.28;5010871;28;20026;-68
2021/07/13 09:53:13;;;;;;;52.55;34.40;;;;;;;20.37;75.56;101325.22;5021628;28;20374;-67
2021/07/13 09:55:38;;;;;;;47.47;33.10;;;;;;;20.32;75.40;101323.69;5025851;28;20025;-68
2021/07/13 09:58:20;;;;;;;51.47;34.00;;;;;;;20.32;75.74;101322.84;5026355;28;20410;-66
2021/07/13 10:00:47;;;;;;;47.67;33.92;;;;;;;20.43;75.40;101316.81;5012034;28;20022;-68
2021/07/13 10:03:15;;;;;;;47.97;31.13;;;;;;;20.57;74.11;101321.19;5025733;28;20049;-68
2021/07/13 10:05:41;;;;;;;43.75;32.42;;;;;;;20.54;75.04;101321.38;5006438;28;20052;-69
2021/07/13 10:08:07;;;;;;;50.53;34.15;;;;;;;20.58;74.55;101323.75;5008928;28;20033;-68
2021/07/13 10:10:33;;;;;;;49.13;34.30;;;;;;;20.55;74.01;101328.44;4989611;28;20029;-67
2021/07/13 10:12:59;;;;;;;50.63;33.90;;;;;;;20.43;74.14;101322.97;5009098;28;20025;-67
2021/07/13 10:15:25;;;;;;;45.53;31.92;;;;;;;20.36;74.36;101329.66;5007300;28;20447;-68
2021/07/13 10:17:51;;;;;;;46.85;32.88;;;;;;;20.36;73.78;101331.47;5024851;28;20033;-69
2021/07/13 10:20:20;;;;;;;48.38;31.42;;;;;;;20.51;73.73;101338.44;5018294;28;20327;-68
2021/07/13 10:22:46;;;;;;;39.92;28.10;;;;;;;20.56;72.75;101333.66;5024924;28;20026;-67
2021/07/13 10:25:12;;;;;;;45.95;30.63;;;;;;;20.53;73.65;101341.00;5006860;28;20393;-68
2021/07/13 10:27:49;;;;;;;47.08;29.52;;;;;;;20.50;73.56;101343.88;5024807;28;20029;-69
2021/07/13 10:30:18;;;;;;;45.50;30.33;;;;;;;20.45;73.68;101345.06;5023130;28;20025;-68
2021/07/13 10:32:44;;;;;;;48.88;30.70;;;;;;;20.45;74.19;101350.38;5018845;28;20207;-68
2021/07/13 10:35:29;;;;;;;50.15;31.23;;;;;;;20.46;73.75;101341.41;5003637;28;20468;-68
2021/07/13 10:38:01;;;;;;;42.63;29.33;;;;;;;20.32;73.01;101346.81;5001571;28;20132;-67
2021/07/13 10:40:27;;;;;;;43.00;28.40;;;;;;;20.47;72.99;101340.44;4994087;28;20120;-67
2021/07/13 10:42:56;;;;;;;38.47;25.85;;;;;;;20.51;72.61;101350.91;5023135;28;20104;-68
2021/07/13 10:45:23;;;;;;;44.22;28.58;;;;;;;20.36;72.48;101350.97;5002598;28;20036;-67
2021/07/13 10:47:59;;;;;;;48.05;28.02;;;;;;;20.34;72.50;101354.69;5021761;28;20080;-68
2021/07/13 10:50:24;;;;;;;45.80;29.00;;;;;;;20.40;72.75;101352.47;5005944;28;20022;-68
2021/07/13 10:52:59;;;;;;;39.47;28.00;;;;;;;20.44;72.31;101356.66;5014334;28;20036;-68
2021/07/13 10:55:31;;;;;;;40.50;25.58;;;;;;;20.37;72.74;101365.16;5000668;28;20022;-69
2021/07/13 10:58:14;;;;;;;42.00;26.80;;;;;;;20.28;73.22;101366.59;5020139;28;20344;-68
2021/07/13 11:01:07;;;;;;;39.42;26.27;;;;;;;20.16;73.04;101371.78;5013612;28;20017;-69
2021/07/13 11:03:32;;;;;;;33.88;23.92;;;;;;;20.14;72.98;101365.72;5022401;28;20022;-68
2021/07/13 11:06:05;;;;;;;39.95;27.80;;;;;;;20.02;73.74;101374.50;5026081;28;20025;-71
2021/07/13 11:11:32;;;;;;;41.63;27.80;;;;;;;20.12;74.51;101378.25;5025736;28;20037;-68